createdAt,value
2023-04-30T00:11:08.258Z,12.70
2023-04-30T00:26:10.223Z,12.73
2023-04-30T00:41:12.379Z,12.48
2023-04-30T00:56:16.683Z,11.73
2023-04-30T01:11:36.873Z,15.38
2023-04-30T01:26:53.353Z,16.35
2023-04-30T01:42:20.366Z,15.05
2023-04-30T01:57:29.230Z,14.57
2023-04-30T02:12:31.185Z,16.00
2023-04-30T02:27:34.175Z,14.20
2023-04-30T02:42:36.211Z,13.68
2023-04-30T02:57:38.226Z,12.90
2023-04-30T03:12:40.145Z,11.70
2023-04-30T03:27:42.191Z,11.10
2023-04-30T03:42:44.253Z,12.15
2023-04-30T03:57:46.416Z,11.25
2023-04-30T04:12:49.080Z,11.68
2023-04-30T04:27:52.632Z,14.13
2023-04-30T04:42:55.877Z,14.35
2023-04-30T04:57:57.886Z,12.07
2023-04-30T05:12:59.863Z,9.48
2023-04-30T05:28:02.027Z,7.03
2023-04-30T05:43:03.986Z,6.03
2023-04-30T05:58:06.675Z,6.43
2023-04-30T06:13:08.820Z,4.20
2023-04-30T06:28:10.886Z,3.15
2023-04-30T06:43:13.402Z,4.15
2023-04-30T06:58:15.444Z,2.78
2023-04-30T07:13:17.492Z,4.60
2023-04-30T07:28:19.437Z,3.00
2023-04-30T07:43:21.516Z,2.20
2023-04-30T07:58:23.594Z,1.95
2023-04-30T08:13:25.717Z,2.15
2023-04-30T08:28:27.841Z,2.08
2023-04-30T08:43:31.215Z,1.52
2023-04-30T08:58:33.313Z,1.30
2023-04-30T09:13:42.322Z,1.42
2023-04-30T09:28:57.769Z,1.58
2023-04-30T09:43:59.795Z,1.70
2023-04-30T09:59:04.840Z,1.08
2023-04-30T10:14:16.805Z,1.20
2023-04-30T10:29:19.386Z,1.50
2023-04-30T10:44:27.144Z,1.60
2023-04-30T10:59:29.093Z,1.23
2023-04-30T11:14:34.375Z,1.10
2023-04-30T11:29:37.744Z,1.15
2023-04-30T11:44:39.881Z,1.10
2023-04-30T11:59:42.544Z,1.10
2023-04-30T12:14:44.625Z,1.20
2023-04-30T12:29:47.712Z,1.10
2023-04-30T12:44:49.879Z,1.20
2023-04-30T13:00:01.243Z,1.10
2023-04-30T13:15:04.161Z,1.42
2023-04-30T13:30:06.737Z,1.10
2023-04-30T13:45:09.301Z,0.93
2023-04-30T14:00:11.958Z,0.93
2023-04-30T14:15:14.903Z,1.25
2023-04-30T14:30:16.902Z,1.20
2023-04-30T14:45:19.356Z,1.30
2023-04-30T15:00:21.349Z,1.55
2023-04-30T15:15:28.121Z,1.38
2023-04-30T15:30:30.107Z,1.33
2023-04-30T15:45:33.935Z,2.65
2023-04-30T16:00:36.129Z,1.42
2023-04-30T16:15:38.240Z,1.27
2023-04-30T16:30:40.575Z,1.58
2023-04-30T16:45:42.702Z,1.40
2023-04-30T17:00:44.920Z,1.63
2023-04-30T17:15:47.470Z,1.58
2023-04-30T17:30:50.337Z,2.03
2023-04-30T17:45:53.947Z,4.70
2023-04-30T18:00:57.577Z,20.15
2023-04-30T18:15:59.909Z,16.58
2023-04-30T18:31:03.696Z,5.72
2023-04-30T18:46:06.277Z,7.60
2023-04-30T19:01:09.178Z,8.05
2023-04-30T19:16:12.001Z,10.73
2023-04-30T19:31:16.659Z,17.15
2023-04-30T19:46:20.037Z,12.73
2023-04-30T20:01:22.939Z,14.25
2023-04-30T20:16:25.536Z,16.08
2023-04-30T20:31:31.541Z,11.00
2023-04-30T20:46:33.847Z,11.63
2023-04-30T21:01:36.112Z,13.48
2023-04-30T21:16:38.331Z,11.85
2023-04-30T21:31:40.401Z,9.85
2023-04-30T21:46:42.434Z,7.78
2023-04-30T22:01:44.609Z,7.15
2023-04-30T22:16:46.906Z,6.05
2023-04-30T22:31:48.985Z,8.13
2023-04-30T22:46:51.428Z,7.47
2023-04-30T23:01:53.625Z,8.13
2023-04-30T23:16:55.718Z,9.15
2023-04-30T23:31:57.813Z,9.32
2023-04-30T23:47:01.195Z,10.02
